バンジュール の空港の天気 - METARとTAF

バンジュール国際空港 ( GBYD / BJL ) - ガンビア バンジュール
飛行場実況気象(Metar)
観測時間08/04 20:00 GMT (08/04 20:00 UTC)
風向・風速静穏 0m/s
視程10km以上
天気現象
全天の4割程度の雲 雲底高度 340m
全天の4割程度の雲 雲底高度 6400m
気温26℃
湿度94%
気圧1012hPa
METARGBYD 042000Z 00000KT 9999 SCT011 SCT210 26/25 Q1012
過去の天気等 Google飛行場航空写真 Wunderground天気予報

過去48時間のMETAR

飛行場予報(TAF)
発表時間: 8/04 17:30 GMT (8/04 17:30 UTC)
予報対象時間: 4日18時 GMT ~ 6日0時 GMT
風向・風速南南西 4m/s
視程10km以上
全天の4割程度の雲 雲底高度 370m
4日19時 GMT ~ 5日1時 GMT に 確率 40% で一時的に
視程4000m
天気現象雷雨
全天の8割程度の雲 雲底高度 300m
少しの積乱雲 雲底高度 550m
TAF GBYD 041730Z 0418/0524 20007KT 9999 SCT012
PROB40 TEMPO 0419/0501 4000 TSRA BKN010 FEW018CB